sensor_id;sensor_type;location;lat;lon;timestamp;temperature;humidity
1644;DHT22;46825;51.99869940;8.49421771;2023-06-26T00:01:58;23.50;99.90
1644;DHT22;46825;51.99869940;8.49421771;2023-06-26T00:04:00;23.50;99.90
1644;DHT22;46825;51.99869940;8.49421771;2023-06-26T00:05:01;23.50;99.90
1644;DHT22;46825;51.99869940;8.49421771;2023-06-26T00:06:05;23.50;99.90
1644;DHT22;46825;51.99869940;8.49421771;2023-06-26T00:07:05;23.50;99.90
1644;DHT22;46825;51.99869940;8.49421771;2023-06-26T00:08:06;23.40;99.90
1644;DHT22;46825;51.99869940;8.49421771;2023-06-26T00:09:07;23.40;99.90
1644;DHT22;46825;51.99869940;8.49421771;2023-06-26T00:10:08;23.40;99.90
1644;DHT22;46825;51.99869940;8.49421771;2023-06-26T00:11:09;23.40;99.90
1644;DHT22;46825;51.99869940;8.49421771;2023-06-26T00:12:09;23.40;99.90
1644;DHT22;46825;51.99869940;8.49421771;2023-06-26T00:16:14;23.30;99.90
1644;DHT22;46825;51.99869940;8.49421771;2023-06-26T00:17:15;23.20;99.90
1644;DHT22;46825;51.99869940;8.49421771;2023-06-26T00:18:16;23.20;99.90
1644;DHT22;46825;51.99869940;8.49421771;2023-06-26T00:19:17;23.20;99.90
1644;DHT22;46825;51.99869940;8.49421771;2023-06-26T00:21:19;23.20;99.90
1644;DHT22;46825;51.99869940;8.49421771;2023-06-26T00:22:21;23.30;99.90
1644;DHT22;46825;51.99869940;8.49421771;2023-06-26T00:23:22;23.20;99.90
1644;DHT22;46825;51.99869940;8.49421771;2023-06-26T00:26:24;23.30;99.90
1644;DHT22;46825;51.99869940;8.49421771;2023-06-26T00:27:25;23.20;99.90
1644;DHT22;46825;51.99869940;8.49421771;2023-06-26T00:30:28;23.20;99.90
1644;DHT22;46825;51.99869940;8.49421771;2023-06-26T00:31:28;23.10;99.90
1644;DHT22;46825;51.99869940;8.49421771;2023-06-26T00:32:29;23.10;99.90
1644;DHT22;46825;51.99869940;8.49421771;2023-06-26T00:34:31;23.10;99.90
1644;DHT22;46825;51.99869940;8.49421771;2023-06-26T00:35:31;23.10;99.90
1644;DHT22;46825;51.99869940;8.49421771;2023-06-26T00:37:33;23.00;99.90
1644;DHT22;46825;51.99869940;8.49421771;2023-06-26T00:38:35;23.00;99.90
1644;DHT22;46825;51.99869940;8.49421771;2023-06-26T00:39:35;23.10;99.90
1644;DHT22;46825;51.99869940;8.49421771;2023-06-26T00:42:38;23.10;99.90
1644;DHT22;46825;51.99869940;8.49421771;2023-06-26T00:44:40;23.10;99.90
1644;DHT22;46825;51.99869940;8.49421771;2023-06-26T00:46:42;23.00;99.90
1644;DHT22;46825;51.99869940;8.49421771;2023-06-26T00:47:43;23.00;99.90
1644;DHT22;46825;51.99869940;8.49421771;2023-06-26T00:48:46;23.00;99.90
1644;DHT22;46825;51.99869940;8.49421771;2023-06-26T00:50:49;23.00;99.90
1644;DHT22;46825;51.99869940;8.49421771;2023-06-26T00:52:51;22.90;99.90
1644;DHT22;46825;51.99869940;8.49421771;2023-06-26T00:53:52;22.90;99.90
1644;DHT22;46825;51.99869940;8.49421771;2023-06-26T00:56:55;22.80;99.90
1644;DHT22;46825;51.99869940;8.49421771;2023-06-26T00:57:56;22.80;99.90
1644;DHT22;46825;51.99869940;8.49421771;2023-06-26T00:58:56;22.80;99.90
1644;DHT22;46825;51.99869940;8.49421771;2023-06-26T01:00:58;22.80;99.90
1644;DHT22;46825;51.99869940;8.49421771;2023-06-26T01:02:01;22.80;99.90
1644;DHT22;46825;51.99869940;8.49421771;2023-06-26T01:05:04;22.90;99.90
1644;DHT22;46825;51.99869940;8.49421771;2023-06-26T01:06:07;22.90;99.90
1644;DHT22;46825;51.99869940;8.49421771;2023-06-26T01:07:12;22.80;99.90
1644;DHT22;46825;51.99869940;8.49421771;2023-06-26T01:10:25;22.80;99.90
1644;DHT22;46825;51.99869940;8.49421771;2023-06-26T01:13:30;22.90;99.90
1644;DHT22;46825;51.99869940;8.49421771;2023-06-26T01:16:35;22.90;99.90
1644;DHT22;46825;51.99869940;8.49421771;2023-06-26T01:17:37;22.90;99.90
1644;DHT22;46825;51.99869940;8.49421771;2023-06-26T01:18:40;22.90;99.90
1644;DHT22;46825;51.99869940;8.49421771;2023-06-26T01:19:42;22.80;99.90
1644;DHT22;46825;51.99869940;8.49421771;2023-06-26T01:21:45;22.80;99.90
1644;DHT22;46825;51.99869940;8.49421771;2023-06-26T01:24:17;22.80;99.90
1644;DHT22;46825;51.99869940;8.49421771;2023-06-26T01:26:22;22.80;99.90
1644;DHT22;46825;51.99869940;8.49421771;2023-06-26T01:27:24;22.80;99.90
1644;DHT22;46825;51.99869940;8.49421771;2023-06-26T01:28:26;22.70;99.90
1644;DHT22;46825;51.99869940;8.49421771;2023-06-26T01:31:31;22.70;99.90
1644;DHT22;46825;51.99869940;8.49421771;2023-06-26T01:32:33;22.80;99.90
1644;DHT22;46825;51.99869940;8.49421771;2023-06-26T01:35:37;22.90;99.90
1644;DHT22;46825;51.99869940;8.49421771;2023-06-26T01:36:38;22.80;99.90
1644;DHT22;46825;51.99869940;8.49421771;2023-06-26T01:37:39;22.80;99.90
1644;DHT22;46825;51.99869940;8.49421771;2023-06-26T01:38:39;22.70;99.90
1644;DHT22;46825;51.99869940;8.49421771;2023-06-26T01:39:42;22.70;99.90
1644;DHT22;46825;51.99869940;8.49421771;2023-06-26T01:40:43;22.70;99.90
1644;DHT22;46825;51.99869940;8.49421771;2023-06-26T01:41:44;22.70;99.90
1644;DHT22;46825;51.99869940;8.49421771;2023-06-26T01:45:27;22.70;99.90
1644;DHT22;46825;51.99869940;8.49421771;2023-06-26T01:49:56;22.70;99.90
1644;DHT22;46825;51.99869940;8.49421771;2023-06-26T01:50:59;22.70;99.90
1644;DHT22;46825;51.99869940;8.49421771;2023-06-26T01:53:21;22.60;99.90
1644;DHT22;46825;51.99869940;8.49421771;2023-06-26T01:54:25;22.60;99.90
1644;DHT22;46825;51.99869940;8.49421771;2023-06-26T01:55:49;22.60;99.90
1644;DHT22;46825;51.99869940;8.49421771;2023-06-26T01:56:52;22.60;99.90
1644;DHT22;46825;51.99869940;8.49421771;2023-06-26T01:57:56;22.60;99.90
1644;DHT22;46825;51.99869940;8.49421771;2023-06-26T01:58:57;22.60;99.90
1644;DHT22;46825;51.99869940;8.49421771;2023-06-26T02:01:02;22.60;99.90
1644;DHT22;46825;51.99869940;8.49421771;2023-06-26T02:02:07;22.60;99.90
1644;DHT22;46825;51.99869940;8.49421771;2023-06-26T02:03:08;22.50;99.90
1644;DHT22;46825;51.99869940;8.49421771;2023-06-26T02:06:10;22.50;99.90
1644;DHT22;46825;51.99869940;8.49421771;2023-06-26T02:07:11;22.50;99.90
1644;DHT22;46825;51.99869940;8.49421771;2023-06-26T02:08:15;22.50;99.90
1644;DHT22;46825;51.99869940;8.49421771;2023-06-26T02:09:16;22.50;99.90
1644;DHT22;46825;51.99869940;8.49421771;2023-06-26T02:11:17;22.50;99.90
1644;DHT22;46825;51.99869940;8.49421771;2023-06-26T02:12:18;22.50;99.90
1644;DHT22;46825;51.99869940;8.49421771;2023-06-26T02:13:18;22.50;99.90
1644;DHT22;46825;51.99869940;8.49421771;2023-06-26T02:15:20;22.50;99.90
1644;DHT22;46825;51.99869940;8.49421771;2023-06-26T02:16:22;22.50;99.90
1644;DHT22;46825;51.99869940;8.49421771;2023-06-26T02:17:23;22.50;99.90
1644;DHT22;46825;51.99869940;8.49421771;2023-06-26T02:18:24;22.50;99.90
1644;DHT22;46825;51.99869940;8.49421771;2023-06-26T02:19:25;22.50;99.90
1644;DHT22;46825;51.99869940;8.49421771;2023-06-26T02:20:27;22.50;99.90
1644;DHT22;46825;51.99869940;8.49421771;2023-06-26T02:22:29;22.50;99.90
1644;DHT22;46825;51.99869940;8.49421771;2023-06-26T02:24:31;22.50;99.90
1644;DHT22;46825;51.99869940;8.49421771;2023-06-26T02:26:33;22.50;99.90
1644;DHT22;46825;51.99869940;8.49421771;2023-06-26T02:27:34;22.50;99.90
1644;DHT22;46825;51.99869940;8.49421771;2023-06-26T02:28:35;22.50;99.90
1644;DHT22;46825;51.99869940;8.49421771;2023-06-26T02:29:36;22.50;99.90
1644;DHT22;46825;51.99869940;8.49421771;2023-06-26T02:37:46;22.60;99.90
1644;DHT22;46825;51.99869940;8.49421771;2023-06-26T02:38:46;22.50;99.90
1644;DHT22;46825;51.99869940;8.49421771;2023-06-26T02:39:47;22.50;99.90
1644;DHT22;46825;51.99869940;8.49421771;2023-06-26T02:42:50;22.60;99.90
1644;DHT22;46825;51.99869940;8.49421771;2023-06-26T02:46:54;22.50;99.90
1644;DHT22;46825;51.99869940;8.49421771;2023-06-26T02:47:54;22.50;99.90
1644;DHT22;46825;51.99869940;8.49421771;2023-06-26T02:50:59;22.50;99.90
1644;DHT22;46825;51.99869940;8.49421771;2023-06-26T02:51:59;22.50;99.90
1644;DHT22;46825;51.99869940;8.49421771;2023-06-26T02:55:02;22.50;99.90
1644;DHT22;46825;51.99869940;8.49421771;2023-06-26T02:56:03;22.50;99.90
1644;DHT22;46825;51.99869940;8.49421771;2023-06-26T02:57:05;22.50;99.90
1644;DHT22;46825;51.99869940;8.49421771;2023-06-26T02:59:06;22.40;99.90
1644;DHT22;46825;51.99869940;8.49421771;2023-06-26T03:00:08;22.40;99.90
1644;DHT22;46825;51.99869940;8.49421771;2023-06-26T03:01:09;22.40;99.90
1644;DHT22;46825;51.99869940;8.49421771;2023-06-26T03:03:11;22.40;99.90
1644;DHT22;46825;51.99869940;8.49421771;2023-06-26T03:08:19;22.40;99.90
1644;DHT22;46825;51.99869940;8.49421771;2023-06-26T03:09:19;22.50;99.90
1644;DHT22;46825;51.99869940;8.49421771;2023-06-26T03:10:20;22.40;99.90
1644;DHT22;46825;51.99869940;8.49421771;2023-06-26T03:12:25;22.40;99.90
1644;DHT22;46825;51.99869940;8.49421771;2023-06-26T03:13:26;22.30;99.90
1644;DHT22;46825;51.99869940;8.49421771;2023-06-26T03:16:29;22.40;99.90
1644;DHT22;46825;51.99869940;8.49421771;2023-06-26T03:17:30;22.40;99.90
1644;DHT22;46825;51.99869940;8.49421771;2023-06-26T03:18:30;22.30;99.90
1644;DHT22;46825;51.99869940;8.49421771;2023-06-26T03:20:32;22.30;99.90
1644;DHT22;46825;51.99869940;8.49421771;2023-06-26T03:21:33;22.30;99.90
1644;DHT22;46825;51.99869940;8.49421771;2023-06-26T03:22:33;22.30;99.90
1644;DHT22;46825;51.99869940;8.49421771;2023-06-26T03:23:34;22.30;99.90
1644;DHT22;46825;51.99869940;8.49421771;2023-06-26T03:26:37;22.30;99.90
1644;DHT22;46825;51.99869940;8.49421771;2023-06-26T03:27:38;22.30;99.90
1644;DHT22;46825;51.99869940;8.49421771;2023-06-26T03:29:39;22.30;99.90
1644;DHT22;46825;51.99869940;8.49421771;2023-06-26T03:30:40;22.30;99.90
1644;DHT22;46825;51.99869940;8.49421771;2023-06-26T03:31:41;22.30;99.90
1644;DHT22;46825;51.99869940;8.49421771;2023-06-26T03:35:45;22.30;99.90
1644;DHT22;46825;51.99869940;8.49421771;2023-06-26T03:37:48;22.20;99.90
1644;DHT22;46825;51.99869940;8.49421771;2023-06-26T03:38:48;22.20;99.90
1644;DHT22;46825;51.99869940;8.49421771;2023-06-26T03:39:49;22.20;99.90
1644;DHT22;46825;51.99869940;8.49421771;2023-06-26T03:40:50;22.30;99.90
1644;DHT22;46825;51.99869940;8.49421771;2023-06-26T03:42:53;22.40;99.90
1644;DHT22;46825;51.99869940;8.49421771;2023-06-26T03:44:56;22.40;99.90
1644;DHT22;46825;51.99869940;8.49421771;2023-06-26T03:46:58;22.40;99.90
1644;DHT22;46825;51.99869940;8.49421771;2023-06-26T03:47:59;22.20;99.90
1644;DHT22;46825;51.99869940;8.49421771;2023-06-26T03:48:59;22.20;99.90
1644;DHT22;46825;51.99869940;8.49421771;2023-06-26T03:52:02;22.30;99.90
1644;DHT22;46825;51.99869940;8.49421771;2023-06-26T03:53:03;22.30;99.90
1644;DHT22;46825;51.99869940;8.49421771;2023-06-26T03:56:06;22.30;99.90
1644;DHT22;46825;51.99869940;8.49421771;2023-06-26T03:58:08;22.30;99.90
1644;DHT22;46825;51.99869940;8.49421771;2023-06-26T04:00:10;22.20;99.90
1644;DHT22;46825;51.99869940;8.49421771;2023-06-26T04:01:14;22.20;99.90
1644;DHT22;46825;51.99869940;8.49421771;2023-06-26T04:05:18;22.20;99.90
1644;DHT22;46825;51.99869940;8.49421771;2023-06-26T04:07:19;22.20;99.90
1644;DHT22;46825;51.99869940;8.49421771;2023-06-26T04:08:20;22.20;99.90
1644;DHT22;46825;51.99869940;8.49421771;2023-06-26T04:09:21;22.30;99.90
1644;DHT22;46825;51.99869940;8.49421771;2023-06-26T04:10:22;22.20;99.90
1644;DHT22;46825;51.99869940;8.49421771;2023-06-26T04:11:22;22.20;99.90
1644;DHT22;46825;51.99869940;8.49421771;2023-06-26T04:12:23;22.30;99.90
1644;DHT22;46825;51.99869940;8.49421771;2023-06-26T04:14:25;22.30;99.90
1644;DHT22;46825;51.99869940;8.49421771;2023-06-26T04:15:26;22.30;99.90
1644;DHT22;46825;51.99869940;8.49421771;2023-06-26T04:18:28;22.20;99.90
1644;DHT22;46825;51.99869940;8.49421771;2023-06-26T04:19:30;22.30;99.90
1644;DHT22;46825;51.99869940;8.49421771;2023-06-26T04:21:31;22.30;99.90
1644;DHT22;46825;51.99869940;8.49421771;2023-06-26T04:22:33;22.30;99.90
1644;DHT22;46825;51.99869940;8.49421771;2023-06-26T04:23:33;22.40;99.90
1644;DHT22;46825;51.99869940;8.49421771;2023-06-26T04:26:38;22.40;99.90
1644;DHT22;46825;51.99869940;8.49421771;2023-06-26T04:27:41;22.40;99.90
1644;DHT22;46825;51.99869940;8.49421771;2023-06-26T04:28:42;22.30;99.90
1644;DHT22;46825;51.99869940;8.49421771;2023-06-26T04:30:44;22.30;99.90
1644;DHT22;46825;51.99869940;8.49421771;2023-06-26T04:31:45;22.30;99.90
1644;DHT22;46825;51.99869940;8.49421771;2023-06-26T04:32:46;22.20;99.90
1644;DHT22;46825;51.99869940;8.49421771;2023-06-26T04:33:47;22.20;99.90
1644;DHT22;46825;51.99869940;8.49421771;2023-06-26T04:34:51;22.20;99.90
1644;DHT22;46825;51.99869940;8.49421771;2023-06-26T04:35:52;22.30;99.90
1644;DHT22;46825;51.99869940;8.49421771;2023-06-26T04:36:54;22.30;99.90
1644;DHT22;46825;51.99869940;8.49421771;2023-06-26T04:37:55;22.30;99.90
1644;DHT22;46825;51.99869940;8.49421771;2023-06-26T04:38:55;22.30;99.90
1644;DHT22;46825;51.99869940;8.49421771;2023-06-26T04:39:56;22.30;99.90
1644;DHT22;46825;51.99869940;8.49421771;2023-06-26T04:40:57;22.30;99.90
1644;DHT22;46825;51.99869940;8.49421771;2023-06-26T04:41:57;22.40;99.90
1644;DHT22;46825;51.99869940;8.49421771;2023-06-26T04:42:59;22.40;99.90
1644;DHT22;46825;51.99869940;8.49421771;2023-06-26T04:45:00;22.50;99.90
1644;DHT22;46825;51.99869940;8.49421771;2023-06-26T04:47:04;22.50;99.90
1644;DHT22;46825;51.99869940;8.49421771;2023-06-26T04:48:05;22.60;99.90
1644;DHT22;46825;51.99869940;8.49421771;2023-06-26T04:49:09;22.50;99.90
1644;DHT22;46825;51.99869940;8.49421771;2023-06-26T04:50:09;22.60;99.90
1644;DHT22;46825;51.99869940;8.49421771;2023-06-26T04:51:11;22.70;99.90
1644;DHT22;46825;51.99869940;8.49421771;2023-06-26T04:52:12;22.60;99.90
1644;DHT22;46825;51.99869940;8.49421771;2023-06-26T04:53:16;22.70;99.90
1644;DHT22;46825;51.99869940;8.49421771;2023-06-26T04:54:17;22.70;99.90
1644;DHT22;46825;51.99869940;8.49421771;2023-06-26T04:55:17;22.70;99.90
1644;DHT22;46825;51.99869940;8.49421771;2023-06-26T04:56:18;22.80;99.90
1644;DHT22;46825;51.99869940;8.49421771;2023-06-26T04:57:18;22.80;99.90
1644;DHT22;46825;51.99869940;8.49421771;2023-06-26T04:58:19;22.90;99.90
1644;DHT22;46825;51.99869940;8.49421771;2023-06-26T04:59:20;22.90;99.90
1644;DHT22;46825;51.99869940;8.49421771;2023-06-26T05:02:23;22.90;99.90
1644;DHT22;46825;51.99869940;8.49421771;2023-06-26T05:03:27;22.90;99.90
1644;DHT22;46825;51.99869940;8.49421771;2023-06-26T05:05:28;23.00;99.90
1644;DHT22;46825;51.99869940;8.49421771;2023-06-26T05:06:29;23.00;99.90
1644;DHT22;46825;51.99869940;8.49421771;2023-06-26T05:07:30;23.00;99.90
1644;DHT22;46825;51.99869940;8.49421771;2023-06-26T05:08:32;23.00;99.90
1644;DHT22;46825;51.99869940;8.49421771;2023-06-26T05:11:36;23.00;99.90
1644;DHT22;46825;51.99869940;8.49421771;2023-06-26T05:12:37;23.10;99.90
1644;DHT22;46825;51.99869940;8.49421771;2023-06-26T05:14:39;23.00;99.90
1644;DHT22;46825;51.99869940;8.49421771;2023-06-26T05:16:40;23.00;99.90
1644;DHT22;46825;51.99869940;8.49421771;2023-06-26T05:17:41;23.00;99.90
1644;DHT22;46825;51.99869940;8.49421771;2023-06-26T05:18:42;23.10;99.90
1644;DHT22;46825;51.99869940;8.49421771;2023-06-26T05:19:42;23.10;99.90
1644;DHT22;46825;51.99869940;8.49421771;2023-06-26T05:20:43;23.00;99.90
1644;DHT22;46825;51.99869940;8.49421771;2023-06-26T05:21:44;23.10;99.90
1644;DHT22;46825;51.99869940;8.49421771;2023-06-26T05:22:45;23.20;99.90
1644;DHT22;46825;51.99869940;8.49421771;2023-06-26T05:23:46;23.20;99.90
1644;DHT22;46825;51.99869940;8.49421771;2023-06-26T05:24:48;23.20;99.90
1644;DHT22;46825;51.99869940;8.49421771;2023-06-26T05:25:48;23.20;99.90
1644;DHT22;46825;51.99869940;8.49421771;2023-06-26T05:26:51;23.20;99.90
1644;DHT22;46825;51.99869940;8.49421771;2023-06-26T05:27:51;23.20;99.90
1644;DHT22;46825;51.99869940;8.49421771;2023-06-26T05:28:53;23.20;99.90
1644;DHT22;46825;51.99869940;8.49421771;2023-06-26T05:29:54;23.30;99.90
1644;DHT22;46825;51.99869940;8.49421771;2023-06-26T05:30:55;23.30;99.90
1644;DHT22;46825;51.99869940;8.49421771;2023-06-26T05:31:56;23.20;99.90
1644;DHT22;46825;51.99869940;8.49421771;2023-06-26T05:32:59;23.30;99.90
1644;DHT22;46825;51.99869940;8.49421771;2023-06-26T05:34:03;23.30;99.90
1644;DHT22;46825;51.99869940;8.49421771;2023-06-26T05:35:04;23.40;99.90
1644;DHT22;46825;51.99869940;8.49421771;2023-06-26T05:36:07;23.40;99.90
1644;DHT22;46825;51.99869940;8.49421771;2023-06-26T05:37:09;23.40;99.90
1644;DHT22;46825;51.99869940;8.49421771;2023-06-26T05:38:12;23.40;99.90
1644;DHT22;46825;51.99869940;8.49421771;2023-06-26T05:39:14;23.40;99.90
1644;DHT22;46825;51.99869940;8.49421771;2023-06-26T05:40:15;23.40;99.90
1644;DHT22;46825;51.99869940;8.49421771;2023-06-26T05:41:16;23.20;99.90
1644;DHT22;46825;51.99869940;8.49421771;2023-06-26T05:42:17;23.30;99.90
1644;DHT22;46825;51.99869940;8.49421771;2023-06-26T05:43:18;23.40;99.90
1644;DHT22;46825;51.99869940;8.49421771;2023-06-26T05:44:21;23.40;99.90
1644;DHT22;46825;51.99869940;8.49421771;2023-06-26T05:46:23;23.40;99.90
1644;DHT22;46825;51.99869940;8.49421771;2023-06-26T05:47:23;23.40;99.90
1644;DHT22;46825;51.99869940;8.49421771;2023-06-26T05:48:24;23.40;99.90
1644;DHT22;46825;51.99869940;8.49421771;2023-06-26T05:49:25;23.50;99.90
1644;DHT22;46825;51.99869940;8.49421771;2023-06-26T05:50:26;23.50;99.90
1644;DHT22;46825;51.99869940;8.49421771;2023-06-26T05:51:28;23.50;99.90
1644;DHT22;46825;51.99869940;8.49421771;2023-06-26T05:52:29;23.50;99.90
1644;DHT22;46825;51.99869940;8.49421771;2023-06-26T05:53:30;23.60;99.90
1644;DHT22;46825;51.99869940;8.49421771;2023-06-26T05:54:31;23.60;99.90
1644;DHT22;46825;51.99869940;8.49421771;2023-06-26T05:55:32;23.60;99.90
1644;DHT22;46825;51.99869940;8.49421771;2023-06-26T05:57:35;23.60;99.90
1644;DHT22;46825;51.99869940;8.49421771;2023-06-26T05:59:40;23.70;99.90
1644;DHT22;46825;51.99869940;8.49421771;2023-06-26T06:00:42;23.70;99.90
1644;DHT22;46825;51.99869940;8.49421771;2023-06-26T06:01:42;23.70;99.90
1644;DHT22;46825;51.99869940;8.49421771;2023-06-26T06:02:43;23.70;99.90
1644;DHT22;46825;51.99869940;8.49421771;2023-06-26T06:03:44;23.70;99.90
1644;DHT22;46825;51.99869940;8.49421771;2023-06-26T06:05:45;23.80;99.90
1644;DHT22;46825;51.99869940;8.49421771;2023-06-26T06:06:46;23.80;99.90
1644;DHT22;46825;51.99869940;8.49421771;2023-06-26T06:07:47;23.80;99.90
1644;DHT22;46825;51.99869940;8.49421771;2023-06-26T06:08:48;23.80;99.90
1644;DHT22;46825;51.99869940;8.49421771;2023-06-26T06:09:48;23.80;99.90
1644;DHT22;46825;51.99869940;8.49421771;2023-06-26T06:10:49;23.80;99.90
1644;DHT22;46825;51.99869940;8.49421771;2023-06-26T06:11:50;23.80;99.90
1644;DHT22;46825;51.99869940;8.49421771;2023-06-26T06:12:50;23.80;99.90
1644;DHT22;46825;51.99869940;8.49421771;2023-06-26T06:14:53;24.00;99.90
1644;DHT22;46825;51.99869940;8.49421771;2023-06-26T06:16:55;24.00;99.90
1644;DHT22;46825;51.99869940;8.49421771;2023-06-26T06:17:56;23.90;99.90
1644;DHT22;46825;51.99869940;8.49421771;2023-06-26T06:19:58;23.70;99.90
1644;DHT22;46825;51.99869940;8.49421771;2023-06-26T06:20:58;23.70;99.90
1644;DHT22;46825;51.99869940;8.49421771;2023-06-26T06:21:59;23.80;99.90
1644;DHT22;46825;51.99869940;8.49421771;2023-06-26T06:23:00;23.80;99.90
1644;DHT22;46825;51.99869940;8.49421771;2023-06-26T06:24:00;23.80;99.90
1644;DHT22;46825;51.99869940;8.49421771;2023-06-26T06:26:02;23.90;99.90
1644;DHT22;46825;51.99869940;8.49421771;2023-06-26T06:27:03;23.90;99.90
1644;DHT22;46825;51.99869940;8.49421771;2023-06-26T06:28:06;23.90;99.90
1644;DHT22;46825;51.99869940;8.49421771;2023-06-26T06:29:07;24.00;99.90
1644;DHT22;46825;51.99869940;8.49421771;2023-06-26T06:30:08;24.00;99.90
1644;DHT22;46825;51.99869940;8.49421771;2023-06-26T06:31:09;24.00;99.90
1644;DHT22;46825;51.99869940;8.49421771;2023-06-26T06:32:10;23.90;99.90
1644;DHT22;46825;51.99869940;8.49421771;2023-06-26T06:33:11;23.90;99.90
1644;DHT22;46825;51.99869940;8.49421771;2023-06-26T06:34:11;23.80;99.90
1644;DHT22;46825;51.99869940;8.49421771;2023-06-26T06:35:13;23.90;99.90
1644;DHT22;46825;51.99869940;8.49421771;2023-06-26T06:36:13;23.80;99.90
1644;DHT22;46825;51.99869940;8.49421771;2023-06-26T06:37:14;23.80;99.90
1644;DHT22;46825;51.99869940;8.49421771;2023-06-26T06:38:15;23.90;99.90
1644;DHT22;46825;51.99869940;8.49421771;2023-06-26T06:39:16;23.90;99.90
1644;DHT22;46825;51.99869940;8.49421771;2023-06-26T06:40:16;24.00;99.90
1644;DHT22;46825;51.99869940;8.49421771;2023-06-26T06:41:17;24.20;99.90
1644;DHT22;46825;51.99869940;8.49421771;2023-06-26T06:43:18;24.40;99.90
1644;DHT22;46825;51.99869940;8.49421771;2023-06-26T06:44:19;24.50;99.90
1644;DHT22;46825;51.99869940;8.49421771;2023-06-26T06:45:20;24.50;99.90
1644;DHT22;46825;51.99869940;8.49421771;2023-06-26T06:46:20;24.50;99.90
1644;DHT22;46825;51.99869940;8.49421771;2023-06-26T06:47:21;24.50;99.90
1644;DHT22;46825;51.99869940;8.49421771;2023-06-26T06:48:22;24.40;99.90
1644;DHT22;46825;51.99869940;8.49421771;2023-06-26T06:49:22;24.40;99.90
1644;DHT22;46825;51.99869940;8.49421771;2023-06-26T06:50:23;24.40;99.90
1644;DHT22;46825;51.99869940;8.49421771;2023-06-26T06:51:23;24.40;99.90
1644;DHT22;46825;51.99869940;8.49421771;2023-06-26T06:52:24;24.30;99.90
1644;DHT22;46825;51.99869940;8.49421771;2023-06-26T06:53:25;24.20;99.90
1644;DHT22;46825;51.99869940;8.49421771;2023-06-26T06:54:26;24.20;99.90
1644;DHT22;46825;51.99869940;8.49421771;2023-06-26T06:55:28;24.20;99.90
1644;DHT22;46825;51.99869940;8.49421771;2023-06-26T06:56:28;24.20;99.90
1644;DHT22;46825;51.99869940;8.49421771;2023-06-26T06:57:29;24.20;99.90
1644;DHT22;46825;51.99869940;8.49421771;2023-06-26T06:58:30;24.20;99.90
1644;DHT22;46825;51.99869940;8.49421771;2023-06-26T06:59:34;24.10;99.90
1644;DHT22;46825;51.99869940;8.49421771;2023-06-26T07:00:35;24.00;99.90
1644;DHT22;46825;51.99869940;8.49421771;2023-06-26T07:02:37;23.90;99.90
1644;DHT22;46825;51.99869940;8.49421771;2023-06-26T07:03:38;24.00;99.90
1644;DHT22;46825;51.99869940;8.49421771;2023-06-26T07:04:39;23.90;99.90
1644;DHT22;46825;51.99869940;8.49421771;2023-06-26T07:05:41;24.00;99.90
1644;DHT22;46825;51.99869940;8.49421771;2023-06-26T07:06:42;24.00;99.90
1644;DHT22;46825;51.99869940;8.49421771;2023-06-26T07:07:43;24.00;99.90
1644;DHT22;46825;51.99869940;8.49421771;2023-06-26T07:08:44;24.10;99.90
1644;DHT22;46825;51.99869940;8.49421771;2023-06-26T07:09:45;24.10;99.90
1644;DHT22;46825;51.99869940;8.49421771;2023-06-26T07:10:45;24.00;99.90
1644;DHT22;46825;51.99869940;8.49421771;2023-06-26T07:11:46;24.00;99.90
1644;DHT22;46825;51.99869940;8.49421771;2023-06-26T07:12:47;24.00;99.90
1644;DHT22;46825;51.99869940;8.49421771;2023-06-26T07:15:50;23.80;99.90
1644;DHT22;46825;51.99869940;8.49421771;2023-06-26T07:16:50;23.80;99.90
1644;DHT22;46825;51.99869940;8.49421771;2023-06-26T07:17:51;23.80;99.90
1644;DHT22;46825;51.99869940;8.49421771;2023-06-26T07:18:52;23.80;99.90
1644;DHT22;46825;51.99869940;8.49421771;2023-06-26T07:19:53;23.80;99.90
1644;DHT22;46825;51.99869940;8.49421771;2023-06-26T07:20:53;23.80;99.90
1644;DHT22;46825;51.99869940;8.49421771;2023-06-26T07:21:54;23.80;99.90
1644;DHT22;46825;51.99869940;8.49421771;2023-06-26T07:23:56;23.90;99.90
1644;DHT22;46825;51.99869940;8.49421771;2023-06-26T07:25:57;23.90;99.90
1644;DHT22;46825;51.99869940;8.49421771;2023-06-26T07:26:59;24.00;99.90
1644;DHT22;46825;51.99869940;8.49421771;2023-06-26T07:28:01;24.00;99.90
1644;DHT22;46825;51.99869940;8.49421771;2023-06-26T07:29:01;24.00;99.90
1644;DHT22;46825;51.99869940;8.49421771;2023-06-26T07:31:04;24.00;99.90
1644;DHT22;46825;51.99869940;8.49421771;2023-06-26T07:32:04;24.00;99.90
1644;DHT22;46825;51.99869940;8.49421771;2023-06-26T07:33:05;24.00;99.90
1644;DHT22;46825;51.99869940;8.49421771;2023-06-26T07:34:06;24.00;99.90
1644;DHT22;46825;51.99869940;8.49421771;2023-06-26T07:35:07;24.10;99.90
1644;DHT22;46825;51.99869940;8.49421771;2023-06-26T07:36:07;24.10;99.90
1644;DHT22;46825;51.99869940;8.49421771;2023-06-26T07:37:08;24.20;99.90
1644;DHT22;46825;51.99869940;8.49421771;2023-06-26T07:38:09;24.20;99.90
1644;DHT22;46825;51.99869940;8.49421771;2023-06-26T07:39:09;24.20;99.90
1644;DHT22;46825;51.99869940;8.49421771;2023-06-26T07:40:11;24.30;99.90
1644;DHT22;46825;51.99869940;8.49421771;2023-06-26T07:41:11;24.30;99.90
1644;DHT22;46825;51.99869940;8.49421771;2023-06-26T07:42:12;24.40;99.90
1644;DHT22;46825;51.99869940;8.49421771;2023-06-26T07:43:13;24.50;99.90
1644;DHT22;46825;51.99869940;8.49421771;2023-06-26T07:44:13;24.60;99.90
1644;DHT22;46825;51.99869940;8.49421771;2023-06-26T07:45:14;24.70;99.90
1644;DHT22;46825;51.99869940;8.49421771;2023-06-26T07:47:16;24.60;99.90
1644;DHT22;46825;51.99869940;8.49421771;2023-06-26T07:48:17;24.50;99.90
1644;DHT22;46825;51.99869940;8.49421771;2023-06-26T07:49:18;24.60;99.90
1644;DHT22;46825;51.99869940;8.49421771;2023-06-26T07:50:18;24.70;99.90
1644;DHT22;46825;51.99869940;8.49421771;2023-06-26T07:51:22;24.80;99.90